Time;durP1;ratioP1;P1;durP2;ratioP2;P2;SDS_P1;SDS_P2;PMS_P1;PMS_P2;Temp;Humidity;BMP_temperature;BMP_pressure;BME280_temperature;BME280_humidity;BME280_pressure;Samples;Min_cycle;Max_cycle;Signal;HPM_P1;HPM_P2
2022/04/14 00:00:05;;;;;;;8.80;2.58;;;;;;;15.73;75.63;101556.16;7385407;19;20050;-66
2022/04/14 00:02:32;;;;;;;9.00;1.23;;;;;;;15.72;75.26;101558.00;7386793;19;20025;-66
2022/04/14 00:04:58;;;;;;;7.13;0.85;;;;;;;15.65;74.68;101557.00;7384913;19;20010;-66
2022/04/14 00:07:25;;;;;;;4.13;0.70;;;;;;;15.64;74.56;101562.50;7383228;19;20044;-66
2022/04/14 00:09:52;;;;;;;9.82;3.25;;;;;;;15.59;75.67;101557.69;7387663;19;20027;-66
2022/04/14 00:12:19;;;;;;;3.78;1.10;;;;;;;15.57;75.49;101557.00;7382466;19;20014;-64
2022/04/14 00:14:46;;;;;;;7.35;0.90;;;;;;;15.56;75.45;101555.34;7382836;19;20023;-68
2022/04/14 00:17:14;;;;;;;6.00;0.80;;;;;;;15.54;75.31;101562.66;7387006;19;20019;-66
2022/04/14 00:19:41;;;;;;;6.90;1.20;;;;;;;15.55;75.85;101566.13;7385527;19;20312;-68
2022/04/14 00:22:08;;;;;;;4.80;1.45;;;;;;;15.54;76.13;101561.84;7384644;19;20007;-67
2022/04/14 00:24:35;;;;;;;12.30;5.15;;;;;;;15.55;77.12;101566.13;7386374;19;20038;-64
2022/04/14 00:27:03;;;;;;;6.22;1.73;;;;;;;15.57;77.26;101558.84;7384626;19;20078;-65
2022/04/14 00:29:30;;;;;;;5.15;1.00;;;;;;;15.58;77.66;101561.31;7387064;19;20025;-65
2022/04/14 00:31:57;;;;;;;6.45;1.30;;;;;;;15.56;76.31;101562.47;7384353;19;20024;-65
2022/04/14 00:34:23;;;;;;;6.07;1.02;;;;;;;15.52;75.26;101566.47;7384270;19;20458;-66
2022/04/14 00:36:50;;;;;;;4.15;1.17;;;;;;;15.46;74.93;101567.94;7384958;19;20014;-64
2022/04/14 00:39:17;;;;;;;6.18;0.90;;;;;;;15.43;75.29;101562.13;7383035;19;20090;-63
2022/04/14 00:41:44;;;;;;;7.95;1.27;;;;;;;15.39;76.06;101562.44;7383561;19;20010;-66
2022/04/14 00:44:11;;;;;;;7.40;1.15;;;;;;;15.36;76.11;101561.97;7384423;19;20015;-65
2022/04/14 00:46:38;;;;;;;6.10;0.82;;;;;;;15.35;76.37;101571.72;7385864;19;20014;-65
2022/04/14 00:49:05;;;;;;;9.13;4.13;;;;;;;15.33;76.86;101580.88;7387202;19;20027;-66
2022/04/14 00:51:32;;;;;;;8.80;1.42;;;;;;;15.33;77.06;101576.41;7385398;19;20112;-64
2022/04/14 00:53:59;;;;;;;5.65;1.10;;;;;;;15.30;76.52;101582.00;7380904;19;20081;-66
2022/04/14 00:56:26;;;;;;;6.38;1.67;;;;;;;15.31;76.80;101586.31;7386594;19;20015;-65
2022/04/14 00:58:53;;;;;;;9.40;1.52;;;;;;;15.29;76.75;101582.16;7391822;19;20015;-64
2022/04/14 01:01:20;;;;;;;8.73;3.45;;;;;;;15.26;76.86;101582.50;7388754;19;20018;-63
2022/04/14 01:03:48;;;;;;;8.38;1.38;;;;;;;15.25;77.57;101588.78;7391477;19;20700;-63
2022/04/14 01:06:19;;;;;;;10.35;3.28;;;;;;;15.24;77.61;101581.81;7389467;19;20010;-65
2022/04/14 01:11:35;;;;;;;8.85;1.80;;;;;;;15.18;76.60;101586.00;7390205;19;20593;-65
2022/04/14 01:14:03;;;;;;;6.68;1.50;;;;;;;15.10;77.14;101582.47;7387765;19;20006;-65
2022/04/14 01:16:30;;;;;;;7.40;1.90;;;;;;;15.01;77.38;101581.66;7391115;19;20014;-65
2022/04/14 01:18:57;;;;;;;6.30;1.92;;;;;;;14.95;77.57;101575.19;7392666;19;20034;-65
2022/04/14 01:21:28;;;;;;;11.15;2.72;;;;;;;14.90;78.46;101579.28;7390432;19;20078;-67
2022/04/14 01:23:55;;;;;;;10.23;2.00;;;;;;;14.88;78.51;101578.66;7390006;19;20115;-66
2022/04/14 01:26:22;;;;;;;11.15;2.15;;;;;;;14.88;78.51;101586.59;7391942;19;20014;-65
2022/04/14 01:28:49;;;;;;;5.63;2.20;;;;;;;14.87;78.40;101588.41;7392483;19;20007;-66
2022/04/14 01:31:16;;;;;;;8.43;2.00;;;;;;;14.86;78.67;101588.56;7390044;19;20014;-64
2022/04/14 01:33:43;;;;;;;10.15;2.20;;;;;;;14.87;78.72;101587.59;7390677;19;20034;-63
2022/04/14 01:36:10;;;;;;;9.43;2.75;;;;;;;14.88;79.00;101584.75;7389570;19;20036;-63
2022/04/14 01:38:38;;;;;;;7.57;2.17;;;;;;;14.89;79.27;101586.41;7395288;19;20037;-65
2022/04/14 01:41:05;;;;;;;7.70;1.77;;;;;;;14.89;78.61;101597.00;7391541;19;20326;-65
2022/04/14 01:43:32;;;;;;;13.25;7.47;;;;;;;14.85;78.91;101601.00;7391130;19;20061;-66
2022/04/14 01:46:00;;;;;;;10.55;2.95;;;;;;;14.82;79.55;101598.66;7392240;19;20864;-65
2022/04/14 01:48:27;;;;;;;15.88;2.88;;;;;;;14.81;79.05;101602.31;7392773;19;20022;-64
2022/04/14 01:50:54;;;;;;;11.65;5.38;;;;;;;14.81;79.24;101597.00;7384344;19;20125;-64
2022/04/14 01:53:21;;;;;;;12.77;3.20;;;;;;;14.84;79.81;101601.13;7390883;19;20071;-66
2022/04/14 01:55:47;;;;;;;10.18;2.90;;;;;;;14.84;79.46;101604.63;7387399;19;20015;-64
2022/04/14 01:58:14;;;;;;;15.70;3.75;;;;;;;14.84;79.72;101601.13;7390018;19;20015;-63
2022/04/14 02:00:41;;;;;;;8.65;2.70;;;;;;;14.81;79.32;101596.19;7389027;19;20019;-65
2022/04/14 02:03:08;;;;;;;8.77;2.35;;;;;;;14.77;79.20;101595.69;7388485;19;20007;-66
2022/04/14 02:05:37;;;;;;;8.88;3.00;;;;;;;14.76;80.23;101598.47;7388920;19;20483;-66
2022/04/14 02:08:11;;;;;;;8.50;2.88;;;;;;;14.75;79.57;101596.81;7388029;19;20010;-65
2022/04/14 02:10:38;;;;;;;10.38;4.20;;;;;;;14.75;79.74;101602.94;7385449;19;20077;-66
2022/04/14 02:13:05;;;;;;;10.45;3.53;;;;;;;14.74;80.19;101605.75;7391453;19;20010;-67
2022/04/14 02:15:32;;;;;;;13.88;3.50;;;;;;;14.72;79.96;101607.75;7390068;19;20010;-64
2022/04/14 02:17:59;;;;;;;10.57;3.15;;;;;;;14.71;79.95;101600.78;7390159;19;20047;-65
2022/04/14 02:20:25;;;;;;;11.32;3.30;;;;;;;14.67;79.99;101610.03;7390194;19;20021;-65
2022/04/14 02:22:52;;;;;;;9.75;2.97;;;;;;;14.63;80.19;101612.16;7388631;19;20396;-67
2022/04/14 02:25:20;;;;;;;9.55;2.80;;;;;;;14.57;79.99;101620.78;7386847;19;20033;-64
2022/04/14 02:27:47;;;;;;;10.10;2.90;;;;;;;14.51;80.52;101618.75;7388443;19;20507;-66
2022/04/14 02:30:14;;;;;;;12.73;3.65;;;;;;;14.48;80.93;101613.75;7388041;19;20070;-63
2022/04/14 02:32:41;;;;;;;19.42;8.32;;;;;;;14.48;81.44;101617.22;7387281;19;20030;-64
2022/04/14 02:35:08;;;;;;;6.70;2.92;;;;;;;14.45;81.63;101620.22;7385222;19;20470;-64
2022/04/14 02:37:35;;;;;;;9.98;3.42;;;;;;;14.43;81.41;101618.69;7390016;19;20045;-66
2022/04/14 02:40:03;;;;;;;12.35;4.63;;;;;;;14.44;82.42;101621.19;7389689;19;20033;-66
2022/04/14 02:42:30;;;;;;;9.48;2.63;;;;;;;14.44;81.71;101623.00;7392084;19;20094;-65
2022/04/14 02:44:57;;;;;;;13.95;2.35;;;;;;;14.45;81.40;101622.03;7387503;19;20018;-65
2022/04/14 02:47:24;;;;;;;11.45;3.47;;;;;;;14.40;81.48;101616.38;7390062;19;20035;-65
2022/04/14 02:49:50;;;;;;;11.75;2.80;;;;;;;14.35;81.30;101615.97;7387045;19;20020;-63
2022/04/14 02:52:17;;;;;;;10.13;2.40;;;;;;;14.28;81.84;101622.88;7389288;19;20022;-67
2022/04/14 02:54:44;;;;;;;8.75;2.88;;;;;;;14.21;82.04;101622.72;7386951;19;20134;-66
2022/04/14 02:57:11;;;;;;;17.42;3.42;;;;;;;14.19;82.33;101626.47;7387743;19;20014;-63
2022/04/14 02:59:38;;;;;;;10.98;2.70;;;;;;;14.18;82.64;101624.81;7391086;19;20082;-66
2022/04/14 03:02:05;;;;;;;21.75;9.48;;;;;;;14.14;81.91;101627.78;7386734;19;20014;-66
2022/04/14 03:04:32;;;;;;;9.77;3.05;;;;;;;14.16;83.74;101622.34;7386650;19;20353;-65
2022/04/14 03:06:59;;;;;;;7.60;2.58;;;;;;;14.14;82.72;101625.13;7386604;19;20007;-65
2022/04/14 03:09:26;;;;;;;9.05;2.40;;;;;;;14.09;82.39;101622.13;7391019;19;20011;-66
2022/04/14 03:11:52;;;;;;;9.75;3.80;;;;;;;14.11;83.59;101624.63;7387146;19;20527;-64
2022/04/14 03:14:19;;;;;;;7.10;2.80;;;;;;;14.10;82.96;101622.97;7388382;19;20090;-65
2022/04/14 03:16:46;;;;;;;8.95;2.88;;;;;;;14.09;82.84;101627.41;7388290;19;20492;-63
2022/04/14 03:19:13;;;;;;;10.80;2.90;;;;;;;14.10;83.45;101628.25;7388479;19;20043;-64
2022/04/14 03:21:41;;;;;;;17.25;3.58;;;;;;;14.08;83.26;101641.63;7384820;19;20077;-65
2022/04/14 03:24:08;;;;;;;7.15;2.80;;;;;;;14.06;82.78;101635.69;7385240;19;20021;-64
2022/04/14 03:26:34;;;;;;;10.93;3.55;;;;;;;14.05;83.50;101647.25;7390574;19;20074;-63
2022/04/14 03:29:02;;;;;;;11.65;3.38;;;;;;;14.05;83.26;101643.78;7386107;19;20018;-66
2022/04/14 03:31:28;;;;;;;31.80;10.60;;;;;;;14.05;83.63;101641.13;7387970;19;20013;-65
2022/04/14 03:33:59;;;;;;;11.40;3.40;;;;;;;14.09;85.23;101639.81;7387865;19;20014;-65
2022/04/14 03:36:25;;;;;;;12.55;3.58;;;;;;;14.07;84.30;101636.47;7389313;19;20019;-65
2022/04/14 03:38:52;;;;;;;13.13;3.17;;;;;;;14.04;83.34;101640.28;7384037;19;20073;-66
2022/04/14 03:41:19;;;;;;;14.48;3.25;;;;;;;14.05;83.19;101635.84;7387138;19;20043;-63
2022/04/14 03:43:47;;;;;;;16.63;5.60;;;;;;;14.05;84.30;101625.25;7382671;19;20016;-65
2022/04/14 03:46:15;;;;;;;9.02;2.97;;;;;;;14.05;85.01;101628.72;7386949;19;20128;-65
2022/04/14 03:48:42;;;;;;;9.70;3.17;;;;;;;14.04;84.05;101642.09;7383395;19;20007;-66
2022/04/14 03:51:09;;;;;;;24.83;10.40;;;;;;;14.06;85.78;101638.34;7381758;19;20011;-64
2022/04/14 03:53:36;;;;;;;13.77;4.45;;;;;;;14.04;85.09;101629.69;7384998;19;20017;-66
2022/04/14 03:56:04;;;;;;;15.10;6.72;;;;;;;14.03;85.26;101628.03;7383306;19;20011;-65
2022/04/14 03:58:31;;;;;;;12.05;3.40;;;;;;;14.04;85.56;101620.94;7388255;19;20349;-65
2022/04/14 04:00:57;;;;;;;16.30;8.00;;;;;;;13.99;84.33;101626.69;7383443;19;20398;-65
2022/04/14 04:03:24;;;;;;;17.30;9.20;;;;;;;14.00;85.93;101638.94;7385540;19;20015;-65
2022/04/14 04:05:52;;;;;;;9.30;3.58;;;;;;;13.98;84.60;101642.72;7384327;19;20051;-65
2022/04/14 04:08:19;;;;;;;18.02;9.88;;;;;;;13.97;84.75;101644.53;7385894;19;20015;-66
2022/04/14 04:10:46;;;;;;;11.25;3.67;;;;;;;13.94;84.68;101633.44;7383356;19;20082;-65
2022/04/14 04:13:13;;;;;;;11.40;3.08;;;;;;;13.92;84.09;101632.75;7384629;19;20082;-67
2022/04/14 04:15:46;;;;;;;17.75;4.20;;;;;;;13.92;84.99;101625.63;7383182;19;20010;-65
2022/04/14 04:18:15;;;;;;;9.68;3.13;;;;;;;13.90;84.11;101640.84;7386598;19;20034;-66
2022/04/14 04:20:41;;;;;;;16.55;5.57;;;;;;;13.89;84.89;101628.59;7383836;19;20010;-65
2022/04/14 04:23:08;;;;;;;10.95;4.30;;;;;;;13.88;84.79;101626.94;7384856;19;20024;-63
2022/04/14 04:25:37;;;;;;;12.05;3.35;;;;;;;13.85;83.95;101621.13;7389008;19;20367;-67
2022/04/14 04:28:09;;;;;;;11.75;3.95;;;;;;;13.83;83.74;101621.28;7385428;19;20013;-65
2022/04/14 04:30:36;;;;;;;16.98;3.63;;;;;;;13.78;83.56;101626.19;7386616;19;20007;-67
2022/04/14 04:33:05;;;;;;;12.88;2.78;;;;;;;13.71;84.34;101631.28;7388225;19;20032;-64
2022/04/14 04:35:32;;;;;;;13.93;3.67;;;;;;;13.63;84.39;101623.28;7393889;19;20532;-65
2022/04/14 04:37:59;;;;;;;9.75;3.60;;;;;;;13.63;85.77;101618.00;7389908;19;20596;-65
2022/04/14 04:40:26;;;;;;;7.85;2.72;;;;;;;13.57;85.13;101626.53;7392417;19;20075;-64
2022/04/14 04:42:52;;;;;;;14.57;3.22;;;;;;;13.51;84.78;101616.56;7391053;19;20436;-66
2022/04/14 04:45:20;;;;;;;11.55;3.85;;;;;;;13.49;85.78;101615.91;7393660;19;20050;-64
2022/04/14 04:47:47;;;;;;;13.50;3.33;;;;;;;13.45;85.50;101614.53;7394699;19;20373;-65
2022/04/14 04:50:14;;;;;;;9.48;3.45;;;;;;;13.39;85.38;101615.16;7387998;19;20464;-65
2022/04/14 04:52:40;;;;;;;20.38;7.28;;;;;;;13.37;87.03;101625.03;7391483;19;20006;-66
2022/04/14 04:55:08;;;;;;;12.15;3.53;;;;;;;13.34;86.74;101635.09;7392246;19;20014;-66
2022/04/14 04:57:34;;;;;;;12.45;3.45;;;;;;;13.34;86.32;101633.28;7393921;19;20074;-64
2022/04/14 05:00:02;;;;;;;20.67;8.38;;;;;;;13.33;86.18;101639.53;7392392;19;20013;-65
2022/04/14 05:02:28;;;;;;;8.70;3.70;;;;;;;13.34;87.20;101643.84;7393871;19;20482;-67
2022/04/14 05:04:55;;;;;;;10.40;3.58;;;;;;;13.32;86.64;101648.44;7391437;19;20021;-67
2022/04/14 05:07:22;;;;;;;16.05;4.03;;;;;;;13.35;86.40;101657.91;7392735;19;20480;-66
2022/04/14 05:09:49;;;;;;;10.65;4.05;;;;;;;13.37;86.40;101651.47;7390408;19;20031;-65
2022/04/14 05:12:16;;;;;;;34.97;11.82;;;;;;;13.42;86.11;101653.66;7391481;19;20097;-67
2022/04/14 05:14:43;;;;;;;17.52;4.45;;;;;;;13.44;86.17;101656.97;7391029;19;20446;-66
2022/04/14 05:17:09;;;;;;;14.07;3.65;;;;;;;13.48;86.31;101653.06;7393365;19;20014;-66
2022/04/14 05:19:36;;;;;;;19.63;7.28;;;;;;;13.51;86.33;101647.47;7390097;19;20014;-65
2022/04/14 05:22:03;;;;;;;14.10;4.32;;;;;;;13.50;85.99;101649.28;7392657;19;20316;-65
2022/04/14 05:24:31;;;;;;;14.80;4.47;;;;;;;13.50;86.00;101659.03;7394240;19;20014;-67
2022/04/14 05:26:58;;;;;;;11.20;3.25;;;;;;;13.50;85.93;101649.28;7390723;19;20070;-67
2022/04/14 05:29:25;;;;;;;12.95;3.97;;;;;;;13.49;85.86;101658.19;7391177;19;20027;-64
2022/04/14 05:31:52;;;;;;;9.40;3.30;;;;;;;13.50;85.71;101661.69;7390095;19;20482;-65
2022/04/14 05:34:19;;;;;;;12.45;4.25;;;;;;;13.51;85.86;101663.34;7392967;19;20018;-66
2022/04/14 05:36:46;;;;;;;20.20;9.82;;;;;;;13.49;86.46;101667.94;7390349;19;20088;-65
2022/04/14 05:39:13;;;;;;;10.93;4.40;;;;;;;13.51;86.57;101673.91;7391349;19;20102;-65
2022/04/14 05:41:40;;;;;;;17.63;7.28;;;;;;;13.53;85.99;101670.13;7391054;19;20031;-63
2022/04/14 05:44:07;;;;;;;14.98;5.88;;;;;;;13.57;85.97;101665.34;7388959;19;20013;-66
2022/04/14 05:46:34;;;;;;;10.60;3.78;;;;;;;13.58;85.45;101667.88;7391678;19;20014;-67
2022/04/14 05:49:02;;;;;;;17.65;5.68;;;;;;;13.58;85.30;101661.75;7391812;19;20014;-66
2022/04/14 05:51:28;;;;;;;10.32;3.60;;;;;;;13.58;85.82;101667.03;7389611;19;20021;-66
2022/04/14 05:53:55;;;;;;;11.65;3.83;;;;;;;13.54;85.54;101674.44;7389967;19;20034;-65
2022/04/14 05:56:22;;;;;;;13.18;3.70;;;;;;;13.51;85.30;101689.78;7387953;19;20118;-65
2022/04/14 05:58:49;;;;;;;17.73;3.78;;;;;;;13.50;85.74;101686.31;7392335;19;20130;-65
2022/04/14 06:01:16;;;;;;;10.45;3.42;;;;;;;13.49;85.71;101692.56;7391608;19;20016;-63
2022/04/14 06:03:43;;;;;;;11.90;3.75;;;;;;;13.49;85.65;101687.28;7356151;19;20112;-67
2022/04/14 06:06:12;;;;;;;12.38;3.78;;;;;;;13.47;85.38;101685.75;7344648;19;20017;-67
2022/04/14 06:08:39;;;;;;;14.02;3.60;;;;;;;13.46;85.35;101692.06;7358396;19;20026;-66
2022/04/14 06:11:06;;;;;;;11.18;4.88;;;;;;;13.46;85.66;101703.44;7343208;19;20014;-65
2022/04/14 06:13:33;;;;;;;12.15;3.03;;;;;;;13.49;85.87;101703.16;7355120;19;20637;-66
2022/04/14 06:16:01;;;;;;;9.88;2.95;;;;;;;13.50;84.97;101710.09;7351074;19;20395;-64
2022/04/14 06:18:28;;;;;;;11.60;3.05;;;;;;;13.48;85.30;101711.22;7349285;19;20017;-67
2022/04/14 06:20:55;;;;;;;12.88;4.28;;;;;;;13.51;85.77;101703.00;7345726;19;20010;-67
2022/04/14 06:23:22;;;;;;;8.85;3.22;;;;;;;13.57;85.96;101707.66;7343575;19;20010;-65
2022/04/14 06:25:50;;;;;;;10.13;3.35;;;;;;;13.64;85.20;101708.75;7352143;19;20094;-65
2022/04/14 06:28:17;;;;;;;13.30;5.03;;;;;;;13.66;84.52;101725.31;7345060;19;20010;-64
2022/04/14 06:30:49;;;;;;;10.73;3.72;;;;;;;13.66;85.01;101723.47;7353814;19;20585;-65
2022/04/14 06:33:16;;;;;;;9.98;3.47;;;;;;;13.70;84.85;101724.00;7353414;19;20125;-65
2022/04/14 06:35:48;;;;;;;8.80;3.28;;;;;;;13.75;84.12;101720.91;7349206;19;20132;-65
2022/04/14 06:38:15;;;;;;;14.48;3.40;;;;;;;13.83;84.34;101723.63;7358205;19;20074;-64
2022/04/14 06:40:45;;;;;;;10.38;3.40;;;;;;;13.87;83.74;101720.50;7350768;19;20037;-64
2022/04/14 06:43:12;;;;;;;10.68;3.60;;;;;;;13.91;83.14;101727.19;7358536;19;20029;-65
2022/04/14 06:45:45;;;;;;;9.07;3.45;;;;;;;13.93;82.57;101733.16;7351098;19;20028;-65
2022/04/14 06:48:14;;;;;;;12.02;3.42;;;;;;;14.04;82.74;101724.13;7353782;19;20018;-66
2022/04/14 06:50:41;;;;;;;12.63;4.10;;;;;;;14.27;81.52;101725.34;7346167;19;20665;-66
2022/04/14 06:53:12;;;;;;;11.50;3.55;;;;;;;14.55;80.21;101729.50;7355071;19;20022;-67
2022/04/14 06:55:48;;;;;;;15.13;4.43;;;;;;;14.75;79.52;101727.47;7375465;19;20019;-67
2022/04/14 06:58:15;;;;;;;10.90;3.58;;;;;;;14.89;79.61;101723.38;7369525;19;20556;-67
2022/04/14 07:00:42;;;;;;;10.40;3.75;;;;;;;15.23;77.33;101732.16;7368576;19;20018;-65
2022/04/14 07:03:09;;;;;;;9.50;3.40;;;;;;;15.56;75.83;101724.31;7376200;19;20007;-63
2022/04/14 07:05:38;;;;;;;9.25;3.60;;;;;;;16.07;73.38;101725.84;7388991;19;20517;-65
2022/04/14 07:08:11;;;;;;;14.20;4.82;;;;;;;16.24;73.57;101735.47;7387631;19;20023;-67
2022/04/14 07:10:41;;;;;;;8.80;3.10;;;;;;;16.18;72.40;101730.81;7385586;19;20034;-67
2022/04/14 07:13:10;;;;;;;13.70;3.85;;;;;;;16.35;72.00;101734.31;7387881;19;20034;-65
2022/04/14 07:15:40;;;;;;;10.30;4.15;;;;;;;16.63;70.34;101733.78;7388759;19;20038;-67
2022/04/14 07:18:12;;;;;;;9.32;3.28;;;;;;;16.58;70.28;101736.13;7389015;19;20386;-65
2022/04/14 07:20:39;;;;;;;10.52;3.72;;;;;;;16.57;70.00;101742.38;7388797;19;20074;-67
2022/04/14 07:23:06;;;;;;;15.30;4.20;;;;;;;16.40;70.93;101747.91;7388853;19;20110;-67
2022/04/14 07:25:34;;;;;;;10.73;3.90;;;;;;;16.33;71.19;101746.91;7387719;19;20017;-66
2022/04/14 07:28:04;;;;;;;9.63;3.72;;;;;;;16.54;70.81;101744.56;7388433;19;20006;-65
2022/04/14 07:30:32;;;;;;;8.88;3.80;;;;;;;16.80;69.43;101745.19;7387072;19;20014;-66
2022/04/14 07:33:00;;;;;;;12.98;3.85;;;;;;;17.03;68.74;101753.25;7388747;19;20006;-63
2022/04/14 07:35:28;;;;;;;14.50;4.55;;;;;;;16.97;68.97;101746.78;7383276;19;20436;-67
2022/04/14 07:37:55;;;;;;;10.60;3.70;;;;;;;16.93;69.19;101749.97;7386745;19;20100;-65
2022/04/14 07:40:22;;;;;;;7.40;3.20;;;;;;;17.25;68.41;101755.16;7387226;19;20408;-66
2022/04/14 07:42:49;;;;;;;13.80;4.25;;;;;;;17.46;67.82;101741.25;7388084;19;20387;-64
2022/04/14 07:45:18;;;;;;;13.23;4.15;;;;;;;17.83;66.89;101749.34;7387269;19;20103;-66
2022/04/14 07:47:45;;;;;;;13.43;4.43;;;;;;;18.07;64.97;101752.84;7387473;19;20353;-67
2022/04/14 07:50:15;;;;;;;14.05;4.43;;;;;;;18.37;64.38;101754.59;7386639;19;20023;-67
2022/04/14 07:52:56;;;;;;;12.80;4.65;;;;;;;18.79;63.52;101749.50;7386121;19;20089;-65
2022/04/14 07:55:28;;;;;;;9.57;4.40;;;;;;;19.31;62.34;101753.03;7388085;19;20463;-68
2022/04/14 07:57:57;;;;;;;14.05;4.25;;;;;;;19.57;60.13;101746.19;7388641;19;20030;-67
2022/04/14 08:00:25;;;;;;;10.55;3.85;;;;;;;19.57;60.10;101745.38;7386259;19;20010;-65
2022/04/14 08:02:58;;;;;;;11.07;4.22;;;;;;;19.40;60.53;101750.06;7388954;19;20171;-66
2022/04/14 08:05:34;;;;;;;14.68;5.65;;;;;;;19.24;61.91;101758.31;7389306;19;20014;-66
2022/04/14 08:08:08;;;;;;;14.38;4.60;;;;;;;19.45;61.05;101753.06;7387377;19;20455;-66
2022/04/14 08:10:35;;;;;;;13.32;4.13;;;;;;;19.69;59.31;101746.53;7389081;19;20003;-66
2022/04/14 08:13:03;;;;;;;16.02;5.28;;;;;;;19.84;58.76;101743.81;7387437;19;20451;-67
2022/04/14 08:15:33;;;;;;;11.23;4.70;;;;;;;19.98;58.74;101745.56;7385344;19;20003;-65
2022/04/14 08:18:02;;;;;;;11.48;5.10;;;;;;;19.81;59.11;101753.00;7384982;19;20032;-68
2022/04/14 08:20:30;;;;;;;9.77;4.28;;;;;;;19.56;59.49;101757.88;7388739;19;20425;-66
2022/04/14 08:22:59;;;;;;;12.75;4.13;;;;;;;19.29;61.88;101753.25;7386952;19;20018;-66
2022/04/14 08:25:33;;;;;;;14.57;4.13;;;;;;;19.05;63.44;101758.88;7386309;19;20464;-64
2022/04/14 08:28:02;;;;;;;15.68;5.15;;;;;;;18.89;65.60;101759.09;7386653;19;20024;-64
2022/04/14 08:30:31;;;;;;;8.20;4.57;;;;;;;18.70;64.03;101753.25;7382512;19;20078;-66
2022/04/14 08:32:59;;;;;;;16.60;4.68;;;;;;;18.41;63.74;101761.19;7384777;19;20018;-67
2022/04/14 08:35:30;;;;;;;12.05;4.95;;;;;;;18.09;65.16;101767.63;7380972;19;20090;-66
2022/04/14 08:37:57;;;;;;;12.35;4.70;;;;;;;17.97;66.15;101766.41;7378711;19;20010;-64
2022/04/14 08:40:29;;;;;;;9.23;3.80;;;;;;;17.85;66.68;101768.66;7381533;19;20092;-66
2022/04/14 08:43:02;;;;;;;9.75;4.07;;;;;;;17.85;68.59;101770.47;7384626;19;20810;-63
2022/04/14 08:45:35;;;;;;;13.10;4.28;;;;;;;17.80;66.71;101764.84;7379246;19;20070;-67
2022/04/14 08:48:05;;;;;;;9.25;4.63;;;;;;;17.75;67.12;101767.22;7383147;19;20038;-65
2022/04/14 08:50:32;;;;;;;11.90;5.13;;;;;;;17.67;66.68;101769.94;7382428;19;20027;-66
2022/04/14 08:53:03;;;;;;;11.95;5.88;;;;;;;17.64;67.32;101763.13;7379439;19;20007;-67
2022/04/14 08:55:31;;;;;;;12.18;4.40;;;;;;;17.66;68.41;101766.47;7375569;19;20015;-66
2022/04/14 08:58:00;;;;;;;9.65;3.78;;;;;;;17.69;67.02;101759.94;7373419;19;20006;-64
2022/04/14 09:00:27;;;;;;;8.23;3.72;;;;;;;17.74;68.29;101763.72;7380055;19;20042;-65
2022/04/14 09:02:57;;;;;;;8.43;3.47;;;;;;;17.75;67.65;101762.72;7381846;19;20356;-65
2022/04/14 09:05:26;;;;;;;12.30;3.97;;;;;;;17.80;67.18;101755.03;7380173;19;20039;-68
2022/04/14 09:07:53;;;;;;;8.85;4.45;;;;;;;17.85;66.69;101758.00;7380327;19;20614;-68
2022/04/14 09:10:21;;;;;;;10.15;4.82;;;;;;;17.88;66.74;101754.97;7379365;19;20628;-67
2022/04/14 09:12:49;;;;;;;8.73;4.10;;;;;;;17.95;66.91;101758.59;7379808;19;20310;-68
2022/04/14 09:15:20;;;;;;;8.80;2.88;;;;;;;17.90;65.49;101755.63;7375794;19;20042;-64
2022/04/14 09:17:56;;;;;;;11.63;3.72;;;;;;;17.90;65.28;101750.31;7375460;19;20688;-66
2022/04/14 09:20:34;;;;;;;10.50;3.20;;;;;;;17.89;65.54;101751.31;7383784;19;20277;-65
2022/04/14 09:23:11;;;;;;;10.05;3.63;;;;;;;17.93;65.70;101757.94;7384655;19;20002;-66
2022/04/14 09:25:43;;;;;;;8.18;2.83;;;;;;;18.00;66.43;101762.56;7384783;19;20021;-68
2022/04/14 09:28:16;;;;;;;6.68;2.40;;;;;;;18.10;64.77;101761.31;7386152;19;20035;-66
2022/04/14 09:31:03;;;;;;;8.13;2.85;;;;;;;18.13;64.74;101754.81;7388315;19;20074;-64
2022/04/14 09:33:32;;;;;;;5.82;2.97;;;;;;;18.13;64.99;101758.31;7390252;19;20720;-66
2022/04/14 09:36:06;;;;;;;9.10;2.90;;;;;;;18.13;64.52;101755.63;7391516;19;20014;-65
2022/04/14 09:39:05;;;;;;;8.10;3.67;;;;;;;18.20;65.71;101761.88;7389579;19;20367;-64
2022/04/14 09:41:37;;;;;;;11.05;2.63;;;;;;;18.29;65.09;101757.31;7392102;19;20010;-66
2022/04/14 09:44:11;;;;;;;10.50;3.50;;;;;;;18.35;64.10;101770.75;7387905;19;20102;-63
2022/04/14 09:46:42;;;;;;;9.32;2.45;;;;;;;18.43;64.44;101771.69;7390237;19;20029;-68
2022/04/14 09:49:14;;;;;;;6.03;2.07;;;;;;;18.47;64.24;101775.66;7390047;19;20417;-68
2022/04/14 09:51:44;;;;;;;7.97;2.47;;;;;;;18.47;64.24;101767.66;7391038;19;20089;-66
2022/04/14 09:54:19;;;;;;;7.63;3.17;;;;;;;18.49;64.06;101774.44;7390311;19;20025;-65
2022/04/14 09:56:56;;;;;;;8.10;2.40;;;;;;;18.48;63.30;101787.97;7390886;19;20443;-63
2022/04/14 09:59:28;;;;;;;6.50;2.25;;;;;;;18.49;63.92;101784.31;7389193;19;20007;-66
2022/04/14 10:02:14;;;;;;;7.65;3.20;;;;;;;18.54;62.94;101782.75;7390333;19;20022;-67
2022/04/14 10:04:43;;;;;;;6.20;1.73;;;;;;;18.58;62.99;101785.91;7390862;19;20011;-68
2022/04/14 10:07:11;;;;;;;6.72;1.77;;;;;;;18.57;62.80;101781.56;7390950;19;20067;-67
2022/04/14 10:09:43;;;;;;;4.88;1.27;;;;;;;18.59;63.16;101783.03;7391649;19;20184;-68
2022/04/14 10:12:16;;;;;;;4.50;1.55;;;;;;;18.60;63.00;101786.53;7389280;19;20026;-65
2022/04/14 10:14:44;;;;;;;6.78;1.75;;;;;;;18.63;63.20;101780.84;7389800;19;20657;-67
2022/04/14 10:17:13;;;;;;;10.43;3.42;;;;;;;18.66;63.86;101778.66;7390451;19;20070;-64
2022/04/14 10:19:41;;;;;;;9.35;2.05;;;;;;;18.64;62.96;101778.00;7391877;19;20018;-67
2022/04/14 10:22:09;;;;;;;5.70;1.85;;;;;;;18.65;62.62;101784.97;7392043;19;20407;-68
2022/04/14 10:24:38;;;;;;;5.13;1.90;;;;;;;18.71;63.01;101784.25;7386568;19;20019;-65
2022/04/14 10:27:06;;;;;;;5.28;1.90;;;;;;;18.77;62.68;101783.53;7391247;19;20023;-66
2022/04/14 10:29:36;;;;;;;3.83;0.93;;;;;;;18.83;60.65;101784.66;7388578;19;20019;-67
2022/04/14 10:32:03;;;;;;;4.82;0.95;;;;;;;18.89;60.85;101781.25;7388738;19;20524;-67
2022/04/14 10:34:30;;;;;;;7.45;1.55;;;;;;;18.97;61.35;101781.16;7387381;19;20468;-68
2022/04/14 10:36:58;;;;;;;4.60;1.67;;;;;;;19.01;60.66;101781.59;7389474;19;20062;-65
2022/04/14 10:39:26;;;;;;;3.83;0.98;;;;;;;19.04;59.75;101784.75;7391234;19;20531;-64
2022/04/14 10:41:54;;;;;;;3.25;1.10;;;;;;;19.02;60.05;101784.09;7388238;19;20039;-67
2022/04/14 10:44:22;;;;;;;7.47;1.88;;;;;;;18.95;59.50;101780.50;7389056;19;20011;-65
2022/04/14 10:46:54;;;;;;;4.95;1.38;;;;;;;18.90;59.44;101784.72;7389756;19;20018;-67
2022/04/14 10:49:26;;;;;;;2.25;0.68;;;;;;;18.85;59.35;101784.44;7390112;19;20007;-68
2022/04/14 10:51:54;;;;;;;3.13;0.60;;;;;;;18.86;58.96;101784.28;7387084;19;20617;-66
2022/04/14 10:54:21;;;;;;;3.13;0.93;;;;;;;18.89;57.26;101778.59;7391024;19;20753;-63
2022/04/14 10:56:52;;;;;;;3.40;1.40;;;;;;;18.85;58.06;101773.78;7389165;19;20572;-67
2022/04/14 10:59:31;;;;;;;3.22;0.80;;;;;;;18.86;58.44;101775.44;7391045;19;20017;-67
2022/04/14 11:02:04;;;;;;;4.75;1.50;;;;;;;18.82;58.67;101774.16;7386572;19;20432;-66
2022/04/14 11:04:36;;;;;;;8.07;1.65;;;;;;;18.82;58.50;101766.97;7387461;19;20019;-65
2022/04/14 11:07:09;;;;;;;4.97;1.27;;;;;;;18.84;59.28;101782.81;7389257;19;20069;-64
2022/04/14 11:09:41;;;;;;;7.88;1.60;;;;;;;18.87;58.86;101777.09;7387395;19;20392;-67
2022/04/14 11:12:09;;;;;;;;;;;;;;;18.94;58.76;101772.69;7390558;19;20043;-68
2022/04/14 11:14:42;;;;;;;3.35;0.80;;;;;;;18.96;58.49;101776.81;7387601;19;19921;-66
2022/04/14 11:20:37;;;;;;;8.13;0.90;;;;;;;19.05;57.24;101775.72;7385271;19;20038;-67
2022/04/14 11:23:14;;;;;;;5.78;0.98;;;;;;;19.11;57.19;101774.97;7389011;19;20086;-67
2022/04/14 11:25:50;;;;;;;4.97;0.80;;;;;;;19.16;56.79;101777.91;7386699;19;20282;-67
2022/04/14 11:28:20;;;;;;;3.55;0.90;;;;;;;19.25;56.37;101778.63;7388909;19;20385;-65
2022/04/14 11:31:00;;;;;;;4.47;0.80;;;;;;;19.34;55.95;101779.38;7386654;19;20029;-66
2022/04/14 11:33:30;;;;;;;4.13;0.85;;;;;;;19.39;55.50;101776.97;7386247;19;20015;-67